createdAt,value
2018-09-20T00:00:54.912Z,7.97
2018-09-20T00:03:23.520Z,7.30
2018-09-20T00:05:52.208Z,7.10
2018-09-20T00:08:20.905Z,7.57
2018-09-20T00:10:49.522Z,8.13
2018-09-20T00:13:18.128Z,7.17
2018-09-20T00:15:46.744Z,7.30
2018-09-20T00:18:15.352Z,7.63
2018-09-20T00:20:43.968Z,7.47
2018-09-20T00:23:12.571Z,7.43
2018-09-20T00:25:41.224Z,7.43
2018-09-20T00:28:09.835Z,6.47
2018-09-20T00:30:38.455Z,7.67
2018-09-20T00:33:07.069Z,7.30
2018-09-20T00:35:35.681Z,6.50
2018-09-20T00:38:04.338Z,7.17
2018-09-20T00:40:32.960Z,7.43
2018-09-20T00:43:01.573Z,7.20
2018-09-20T00:45:30.188Z,7.97
2018-09-20T00:47:58.808Z,7.17
2018-09-20T00:50:27.428Z,8.27
2018-09-20T00:52:56.052Z,7.50
2018-09-20T00:55:24.644Z,8.27
2018-09-20T00:57:53.259Z,8.67
2018-09-20T01:00:21.885Z,7.40
2018-09-20T01:02:50.506Z,7.50
2018-09-20T01:05:19.107Z,7.57
2018-09-20T01:07:47.719Z,7.57
2018-09-20T01:10:16.316Z,8.50
2018-09-20T01:12:44.919Z,8.17
2018-09-20T01:15:13.592Z,8.03
2018-09-20T01:17:42.225Z,7.93
2018-09-20T01:20:10.856Z,7.63
2018-09-20T01:22:39.489Z,7.83
2018-09-20T01:25:08.096Z,8.30
2018-09-20T01:27:36.709Z,7.70
2018-09-20T01:30:05.385Z,7.73
2018-09-20T01:32:34.004Z,7.47
2018-09-20T01:35:02.607Z,7.43
2018-09-20T01:37:31.232Z,7.50
2018-09-20T01:39:59.831Z,7.77
2018-09-20T01:42:28.444Z,8.70
2018-09-20T01:44:57.059Z,8.80
2018-09-20T01:47:25.668Z,7.63
2018-09-20T01:49:54.279Z,7.47
2018-09-20T01:52:22.943Z,6.77
2018-09-20T01:54:51.548Z,7.90
2018-09-20T01:57:20.184Z,8.50
2018-09-20T01:59:48.780Z,7.83
2018-09-20T02:02:17.393Z,8.00
2018-09-20T02:04:45.992Z,8.23
2018-09-20T02:07:14.599Z,7.97
2018-09-20T02:09:43.209Z,7.40
2018-09-20T02:12:11.822Z,8.87
2018-09-20T02:14:40.422Z,7.83
2018-09-20T02:17:09.029Z,7.03
2018-09-20T02:19:37.633Z,7.67
2018-09-20T02:22:06.303Z,7.70
2018-09-20T02:24:34.927Z,7.80
2018-09-20T02:27:03.540Z,7.83
2018-09-20T02:29:32.163Z,7.40
2018-09-20T02:32:00.853Z,7.53
2018-09-20T02:34:29.453Z,8.53
2018-09-20T02:36:58.072Z,7.30
2018-09-20T02:39:26.689Z,8.40
2018-09-20T02:41:55.278Z,7.90
2018-09-20T02:44:23.883Z,8.00
2018-09-20T02:46:52.496Z,7.20
2018-09-20T02:49:21.148Z,7.77
2018-09-20T02:51:49.756Z,7.80
2018-09-20T02:54:18.420Z,9.60
2018-09-20T02:56:46.988Z,7.80
2018-09-20T02:59:15.595Z,8.43
2018-09-20T03:01:44.204Z,7.90
2018-09-20T03:04:12.812Z,7.03
2018-09-20T03:06:41.434Z,8.20
2018-09-20T03:09:10.957Z,7.97
2018-09-20T03:11:39.562Z,7.83
2018-09-20T03:14:08.466Z,8.70
2018-09-20T03:16:37.080Z,8.40
2018-09-20T03:19:05.871Z,8.27
2018-09-20T03:21:35.983Z,7.50
2018-09-20T03:24:04.591Z,8.03
2018-09-20T03:26:33.200Z,8.27
2018-09-20T03:29:01.846Z,7.83
2018-09-20T03:31:30.450Z,8.63
2018-09-20T03:33:59.056Z,8.30
2018-09-20T03:36:27.717Z,7.97
2018-09-20T03:38:56.323Z,8.70
2018-09-20T03:41:24.936Z,8.80
2018-09-20T03:43:53.683Z,6.73
2018-09-20T03:46:22.287Z,8.87
2018-09-20T03:48:50.915Z,8.20
2018-09-20T03:51:19.560Z,8.37
2018-09-20T03:53:48.172Z,7.53
2018-09-20T03:56:16.773Z,8.73
2018-09-20T03:58:45.384Z,7.30
2018-09-20T04:01:13.988Z,9.03
2018-09-20T04:03:42.602Z,7.73
2018-09-20T04:06:11.213Z,8.37
2018-09-20T04:08:39.829Z,8.10
2018-09-20T04:11:08.435Z,8.27
2018-09-20T04:13:37.056Z,7.20
2018-09-20T04:16:05.737Z,8.10
2018-09-20T04:18:34.393Z,7.93
2018-09-20T04:21:02.988Z,9.23
2018-09-20T04:23:31.597Z,8.67
2018-09-20T04:26:00.207Z,8.70
2018-09-20T04:28:28.820Z,8.40
2018-09-20T04:30:57.424Z,8.27
2018-09-20T04:33:26.051Z,7.93
2018-09-20T04:35:54.640Z,9.10
2018-09-20T04:38:23.268Z,7.80
2018-09-20T04:40:51.872Z,8.57
2018-09-20T04:43:20.510Z,8.50
2018-09-20T04:45:49.095Z,9.40
2018-09-20T04:48:18.003Z,9.00
2018-09-20T04:50:46.716Z,9.53
2018-09-20T04:53:16.366Z,8.40
2018-09-20T04:55:44.973Z,9.10
2018-09-20T04:58:13.567Z,8.83
2018-09-20T05:00:42.748Z,8.10
2018-09-20T05:03:11.404Z,9.97
2018-09-20T05:05:45.983Z,9.27
2018-09-20T05:08:17.957Z,9.90
2018-09-20T05:10:49.253Z,8.73
2018-09-20T05:13:22.508Z,10.07
2018-09-20T05:15:51.168Z,10.00
2018-09-20T05:18:19.783Z,9.13
2018-09-20T05:20:49.843Z,10.00
2018-09-20T05:23:18.724Z,9.80
2018-09-20T05:25:47.328Z,11.27
2018-09-20T05:28:15.935Z,10.07
2018-09-20T05:30:44.615Z,9.93
2018-09-20T05:33:13.252Z,9.30
2018-09-20T05:35:41.837Z,9.83
2018-09-20T05:38:10.593Z,9.30
2018-09-20T05:40:39.163Z,9.47
2018-09-20T05:43:07.772Z,8.90
2018-09-20T05:45:36.371Z,9.60
2018-09-20T05:48:05.100Z,9.17
2018-09-20T05:50:33.783Z,9.83
2018-09-20T05:53:03.576Z,9.20
2018-09-20T05:55:32.183Z,8.77
2018-09-20T05:58:00.799Z,11.33
2018-09-20T06:00:32.855Z,9.50
2018-09-20T06:03:01.460Z,10.13
2018-09-20T06:05:30.067Z,9.47
2018-09-20T06:07:58.668Z,8.80
2018-09-20T06:10:27.284Z,9.30
2018-09-20T06:13:02.061Z,9.40
2018-09-20T06:15:30.860Z,9.73
2018-09-20T06:18:02.387Z,9.87
2018-09-20T06:20:36.384Z,9.53
2018-09-20T06:23:05.119Z,9.57
2018-09-20T06:25:33.747Z,10.30
2018-09-20T06:28:02.347Z,9.73
2018-09-20T06:30:30.964Z,9.60
2018-09-20T06:32:59.645Z,10.10
2018-09-20T06:35:28.693Z,9.40
2018-09-20T06:37:57.291Z,10.83
2018-09-20T06:40:25.913Z,9.50
2018-09-20T06:42:54.525Z,10.57
2018-09-20T06:45:23.142Z,10.47
2018-09-20T06:47:51.751Z,10.17
2018-09-20T06:50:20.412Z,9.17
2018-09-20T06:52:48.989Z,9.90
2018-09-20T06:55:17.602Z,8.97
2018-09-20T06:57:46.221Z,9.73
2018-09-20T07:00:14.831Z,10.37
2018-09-20T07:02:43.464Z,11.03
2018-09-20T07:05:12.088Z,8.77
2018-09-20T07:07:40.806Z,8.77
2018-09-20T07:10:09.380Z,7.40
2018-09-20T07:12:37.984Z,7.90
2018-09-20T07:15:07.416Z,8.77
2018-09-20T07:17:36.146Z,6.57
2018-09-20T07:20:04.919Z,7.70
2018-09-20T07:22:33.523Z,7.37
2018-09-20T07:25:02.158Z,6.90
2018-09-20T07:27:30.759Z,6.10
2018-09-20T07:29:59.380Z,6.80
2018-09-20T07:32:28.000Z,6.60
2018-09-20T07:34:56.619Z,6.70
2018-09-20T07:37:25.241Z,7.10
2018-09-20T07:39:53.847Z,6.30
2018-09-20T07:42:22.552Z,6.33
2018-09-20T07:44:51.174Z,6.37
2018-09-20T07:47:19.812Z,7.07
2018-09-20T07:49:48.447Z,7.87
2018-09-20T07:52:17.051Z,7.07
2018-09-20T07:54:45.696Z,7.70
2018-09-20T07:57:14.301Z,6.50
2018-09-20T07:59:42.900Z,6.17
2018-09-20T08:02:11.516Z,6.03
2018-09-20T08:04:40.127Z,7.07
2018-09-20T08:07:08.993Z,6.13
2018-09-20T08:09:37.599Z,5.30
2018-09-20T08:12:06.208Z,5.57
2018-09-20T08:14:34.843Z,5.77
2018-09-20T08:17:03.464Z,6.90
2018-09-20T08:19:32.100Z,4.50
2018-09-20T08:22:00.716Z,5.50
2018-09-20T08:24:29.320Z,5.73
2018-09-20T08:26:57.928Z,6.00
2018-09-20T08:29:26.544Z,5.27
2018-09-20T08:31:55.147Z,6.33
2018-09-20T08:34:23.759Z,5.40
2018-09-20T08:36:52.382Z,5.97
2018-09-20T08:39:20.990Z,6.13
2018-09-20T08:41:49.596Z,5.47
2018-09-20T08:44:18.223Z,5.80
2018-09-20T08:46:46.825Z,5.20
2018-09-20T08:49:15.687Z,6.50
2018-09-20T08:51:44.340Z,5.20
2018-09-20T08:54:12.959Z,6.33
2018-09-20T08:56:41.605Z,6.17
2018-09-20T08:59:10.259Z,5.50
2018-09-20T09:01:38.879Z,6.53
2018-09-20T09:04:07.579Z,6.97
2018-09-20T09:06:36.890Z,5.93
2018-09-20T09:09:07.892Z,5.00
2018-09-20T09:11:36.951Z,5.50
2018-09-20T09:14:05.639Z,4.93
2018-09-20T09:16:34.244Z,4.60
2018-09-20T09:19:03.113Z,4.70
2018-09-20T09:21:31.680Z,5.27
2018-09-20T09:24:00.316Z,4.67
2018-09-20T09:26:28.952Z,4.80
2018-09-20T09:28:57.569Z,4.97
2018-09-20T09:31:26.180Z,5.07
2018-09-20T09:33:54.779Z,5.13
2018-09-20T09:36:28.636Z,4.50
2018-09-20T09:38:57.231Z,3.83
2018-09-20T09:41:25.849Z,4.73
2018-09-20T09:43:54.468Z,4.13
2018-09-20T09:46:23.084Z,3.87
2018-09-20T09:48:51.687Z,4.30
2018-09-20T09:51:20.311Z,4.10
2018-09-20T09:53:48.915Z,4.50
2018-09-20T09:56:17.511Z,3.63
2018-09-20T09:58:46.127Z,4.30
2018-09-20T10:01:14.772Z,3.70
2018-09-20T10:03:43.368Z,4.60
2018-09-20T10:06:11.998Z,3.27
2018-09-20T10:08:40.597Z,4.37
2018-09-20T10:11:09.216Z,3.60
2018-09-20T10:13:37.871Z,3.67
2018-09-20T10:16:06.508Z,3.37
2018-09-20T10:18:35.116Z,4.10
2018-09-20T10:21:03.716Z,4.13
2018-09-20T10:23:32.319Z,4.40
2018-09-20T10:26:00.920Z,3.53
2018-09-20T10:28:29.533Z,3.67
2018-09-20T10:30:58.173Z,3.20
2018-09-20T10:33:26.781Z,4.07
2018-09-20T10:35:55.413Z,4.77
2018-09-20T10:38:24.003Z,4.00
2018-09-20T10:40:52.607Z,3.57
2018-09-20T10:43:21.208Z,4.53
2018-09-20T10:46:01.053Z,4.63
2018-09-20T10:48:29.640Z,4.20
2018-09-20T10:50:58.256Z,3.90
2018-09-20T10:53:26.864Z,3.90
2018-09-20T10:55:55.523Z,3.70
2018-09-20T10:58:24.144Z,4.97
2018-09-20T11:00:52.736Z,5.10
2018-09-20T11:03:21.400Z,4.30
2018-09-20T11:05:49.972Z,5.00
2018-09-20T11:08:18.587Z,4.90
2018-09-20T11:10:47.218Z,4.60
2018-09-20T11:13:16.028Z,4.40
2018-09-20T11:15:44.625Z,4.30
2018-09-20T11:18:13.231Z,4.20
2018-09-20T11:20:41.840Z,4.07
2018-09-20T11:23:10.444Z,4.53
2018-09-20T11:25:39.099Z,4.40
2018-09-20T11:28:07.708Z,4.00
2018-09-20T11:30:36.321Z,4.13
2018-09-20T11:33:04.995Z,4.33
2018-09-20T11:35:33.591Z,3.77
2018-09-20T11:38:02.264Z,3.90
2018-09-20T11:40:30.873Z,3.97
2018-09-20T11:42:59.480Z,4.03
2018-09-20T11:45:28.105Z,4.85
2018-09-20T11:47:56.712Z,4.15
2018-09-20T11:50:25.324Z,4.55
2018-09-20T11:52:53.942Z,4.83
2018-09-20T11:55:22.556Z,3.92
2018-09-20T11:57:51.158Z,4.15
2018-09-20T12:00:20.663Z,4.75
2018-09-20T12:02:50.548Z,5.58
2018-09-20T12:05:19.183Z,5.05
2018-09-20T12:07:47.783Z,4.15
2018-09-20T12:10:16.964Z,3.98
2018-09-20T12:12:45.628Z,4.30
2018-09-20T12:15:14.279Z,4.65
2018-09-20T12:17:42.882Z,4.35
2018-09-20T12:20:11.490Z,3.47
2018-09-20T12:22:40.093Z,4.58
2018-09-20T12:25:08.692Z,4.65
2018-09-20T12:27:37.304Z,3.52
2018-09-20T12:30:06.140Z,4.40
2018-09-20T12:32:34.773Z,4.87
2018-09-20T12:35:03.379Z,3.80
2018-09-20T12:37:38.889Z,3.67
2018-09-20T12:40:08.576Z,3.35
2018-09-20T12:42:37.233Z,4.40
2018-09-20T12:45:06.008Z,3.58
2018-09-20T12:47:34.599Z,3.60
2018-09-20T12:50:03.219Z,3.80
2018-09-20T12:52:31.855Z,4.25
2018-09-20T12:55:00.463Z,3.83
2018-09-20T12:57:29.064Z,3.65
2018-09-20T12:59:57.671Z,3.92
2018-09-20T13:02:26.418Z,3.27
2018-09-20T13:04:55.029Z,3.10
2018-09-20T13:07:23.628Z,4.58
2018-09-20T13:09:52.250Z,3.52
2018-09-20T13:12:20.863Z,3.80
2018-09-20T13:14:49.467Z,3.70
2018-09-20T13:17:18.088Z,4.03
2018-09-20T13:19:46.719Z,4.80
2018-09-20T13:22:15.322Z,3.27
2018-09-20T13:24:43.971Z,4.42
2018-09-20T13:27:12.580Z,3.90
2018-09-20T13:29:41.188Z,3.75
2018-09-20T13:32:09.849Z,3.25
2018-09-20T13:34:38.464Z,3.70
2018-09-20T13:37:07.062Z,2.90
2018-09-20T13:39:35.659Z,3.80
2018-09-20T13:42:04.264Z,3.10
2018-09-20T13:44:32.935Z,3.27
2018-09-20T13:47:01.540Z,3.43
2018-09-20T13:49:30.139Z,3.33
2018-09-20T13:51:58.735Z,3.40
2018-09-20T13:54:27.351Z,3.47
2018-09-20T13:56:55.947Z,2.90
2018-09-20T13:59:24.576Z,2.92
2018-09-20T14:01:53.171Z,3.30
2018-09-20T14:04:21.779Z,4.47
2018-09-20T14:06:50.440Z,3.95
2018-09-20T14:09:19.036Z,3.27
2018-09-20T14:11:47.680Z,3.58
2018-09-20T14:14:16.285Z,3.15
2018-09-20T14:16:44.892Z,3.20
2018-09-20T14:19:13.500Z,4.60
2018-09-20T14:21:42.100Z,3.20
2018-09-20T14:24:10.704Z,3.40
2018-09-20T14:26:39.311Z,3.50
2018-09-20T14:29:07.924Z,3.83
2018-09-20T14:31:36.541Z,3.12
2018-09-20T14:34:05.158Z,3.20
2018-09-20T14:36:33.833Z,4.22
2018-09-20T14:39:02.475Z,4.67
2018-09-20T14:41:31.078Z,2.70
2018-09-20T14:43:59.675Z,3.90
2018-09-20T14:46:28.291Z,3.85
2018-09-20T14:48:56.888Z,3.02
2018-09-20T14:51:26.791Z,3.27
2018-09-20T14:53:55.436Z,3.98
2018-09-20T14:56:24.060Z,3.90
2018-09-20T14:58:52.655Z,3.52
2018-09-20T15:01:21.259Z,3.98
2018-09-20T15:03:49.864Z,4.70
2018-09-20T15:06:18.494Z,2.95
2018-09-20T15:08:47.669Z,3.00
2018-09-20T15:11:19.168Z,3.42
2018-09-20T15:13:47.777Z,3.42
2018-09-20T15:16:18.357Z,3.45
2018-09-20T15:18:46.950Z,3.98
2018-09-20T15:21:15.573Z,3.17
2018-09-20T15:23:44.179Z,4.17
2018-09-20T15:26:13.331Z,4.15
2018-09-20T15:28:41.931Z,3.30
2018-09-20T15:31:10.623Z,4.05
2018-09-20T15:33:39.224Z,3.72
2018-09-20T15:36:08.091Z,4.40
2018-09-20T15:38:36.940Z,3.95
2018-09-20T15:41:05.530Z,3.37
2018-09-20T15:43:34.149Z,3.20
2018-09-20T15:46:02.788Z,3.55
2018-09-20T15:48:31.388Z,3.85
2018-09-20T15:50:59.984Z,4.20
2018-09-20T15:53:28.592Z,3.20
2018-09-20T15:55:57.196Z,3.65
2018-09-20T15:58:25.921Z,3.85
2018-09-20T16:00:54.503Z,3.33
2018-09-20T16:03:23.561Z,3.20
2018-09-20T16:05:53.022Z,4.00
2018-09-20T16:08:21.585Z,4.53
2018-09-20T16:10:50.194Z,4.03
2018-09-20T16:13:18.820Z,3.80
2018-09-20T16:15:47.558Z,3.93
2018-09-20T16:18:16.154Z,3.77
2018-09-20T16:20:44.777Z,3.43
2018-09-20T16:23:13.384Z,3.50
2018-09-20T16:25:42.003Z,3.70
2018-09-20T16:28:19.323Z,3.27
2018-09-20T16:31:01.492Z,3.20
2018-09-20T16:34:03.924Z,3.37
2018-09-20T16:36:50.980Z,2.87
2018-09-20T16:39:21.468Z,3.33
2018-09-20T16:41:51.996Z,3.30
2018-09-20T16:44:20.626Z,3.30
2018-09-20T16:46:49.230Z,3.00
2018-09-20T16:49:17.866Z,3.10
2018-09-20T16:51:46.460Z,2.97
2018-09-20T16:54:15.075Z,3.90
2018-09-20T16:56:43.673Z,3.30
2018-09-20T16:59:12.282Z,4.00
2018-09-20T17:01:40.916Z,3.20
2018-09-20T17:04:09.496Z,3.77
2018-09-20T17:06:38.091Z,3.33
2018-09-20T17:09:07.728Z,3.30
2018-09-20T17:11:36.370Z,3.50
2018-09-20T17:14:05.237Z,3.63
2018-09-20T17:16:33.896Z,3.57
2018-09-20T17:19:02.463Z,3.53
2018-09-20T17:21:31.064Z,3.93
2018-09-20T17:23:59.688Z,4.20
2018-09-20T17:26:28.279Z,3.53
2018-09-20T17:28:56.900Z,4.20
2018-09-20T17:31:25.517Z,4.53
2018-09-20T17:33:54.140Z,3.57
2018-09-20T17:36:22.936Z,4.77
2018-09-20T17:38:52.281Z,4.27
2018-09-20T17:41:24.624Z,3.80
2018-09-20T17:43:55.379Z,3.13
2018-09-20T17:46:23.987Z,4.00
2018-09-20T17:48:52.595Z,4.33
2018-09-20T17:51:21.552Z,3.83
2018-09-20T17:53:50.487Z,4.43
2018-09-20T17:56:19.535Z,4.03
2018-09-20T17:58:48.804Z,4.57
2018-09-20T18:01:17.420Z,4.10
2018-09-20T18:03:46.020Z,5.10
2018-09-20T18:06:15.052Z,4.90
2018-09-20T18:08:43.664Z,4.83
2018-09-20T18:11:12.275Z,5.67
2018-09-20T18:13:40.876Z,4.73
2018-09-20T18:16:09.483Z,5.13
2018-09-20T18:18:38.088Z,5.20
2018-09-20T18:21:06.691Z,5.37
2018-09-20T18:23:35.307Z,6.47
2018-09-20T18:26:03.919Z,4.53
2018-09-20T18:28:32.524Z,5.70
2018-09-20T18:31:01.140Z,5.50
2018-09-20T18:33:29.747Z,5.83
2018-09-20T18:36:31.712Z,5.87
2018-09-20T18:39:00.403Z,6.20
2018-09-20T18:41:29.012Z,6.00
2018-09-20T18:43:57.617Z,5.83
2018-09-20T18:46:26.227Z,6.10
2018-09-20T18:48:54.815Z,6.30
2018-09-20T18:51:23.415Z,5.43
2018-09-20T18:53:52.030Z,5.70
2018-09-20T18:56:20.639Z,5.63
2018-09-20T18:58:49.239Z,6.07
2018-09-20T19:01:17.908Z,6.07
2018-09-20T19:03:46.436Z,5.60
2018-09-20T19:06:15.053Z,6.07
2018-09-20T19:08:43.648Z,7.13
2018-09-20T19:11:12.255Z,6.50
2018-09-20T19:13:41.020Z,7.43
2018-09-20T19:16:09.627Z,8.50
2018-09-20T19:18:38.232Z,7.10
2018-09-20T19:21:06.866Z,6.83
2018-09-20T19:23:35.629Z,7.90
2018-09-20T19:26:04.239Z,6.40
2018-09-20T19:28:32.843Z,6.97
2018-09-20T19:31:01.513Z,7.00
2018-09-20T19:33:30.115Z,7.10
2018-09-20T19:35:58.743Z,7.43
2018-09-20T19:38:27.324Z,5.20
2018-09-20T19:40:55.923Z,5.67
2018-09-20T19:43:24.524Z,6.30
2018-09-20T19:45:53.127Z,6.00
2018-09-20T19:48:21.737Z,6.10
2018-09-20T19:50:50.393Z,6.90
2018-09-20T19:53:19.083Z,6.27
2018-09-20T19:55:47.724Z,5.90
2018-09-20T19:58:16.384Z,4.90
2018-09-20T20:00:45.069Z,5.50
2018-09-20T20:03:13.668Z,5.43
2018-09-20T20:05:42.271Z,5.50
2018-09-20T20:08:11.229Z,4.67
2018-09-20T20:10:39.821Z,5.23
2018-09-20T20:13:08.442Z,5.10
2018-09-20T20:15:37.027Z,4.53
2018-09-20T20:18:05.719Z,4.53
2018-09-20T20:20:34.359Z,4.57
2018-09-20T20:23:02.979Z,5.37
2018-09-20T20:25:31.872Z,3.60
2018-09-20T20:28:00.476Z,4.00
2018-09-20T20:30:29.065Z,3.77
2018-09-20T20:32:57.659Z,4.73
2018-09-20T20:35:26.264Z,4.90
2018-09-20T20:37:54.883Z,4.30
2018-09-20T20:40:23.491Z,4.10
2018-09-20T20:42:52.101Z,3.80
2018-09-20T20:45:20.696Z,3.80
2018-09-20T20:47:49.288Z,4.03
2018-09-20T20:50:17.891Z,4.30
2018-09-20T20:52:46.500Z,4.47
2018-09-20T20:55:15.144Z,4.60
2018-09-20T20:57:43.754Z,4.17
2018-09-20T21:00:12.356Z,4.77
2018-09-20T21:02:40.951Z,5.47
2018-09-20T21:05:09.561Z,5.13
2018-09-20T21:07:38.140Z,4.60
2018-09-20T21:10:06.772Z,5.50
2018-09-20T21:12:35.372Z,5.67
2018-09-20T21:15:04.004Z,5.60
2018-09-20T21:17:32.659Z,5.50
2018-09-20T21:20:01.204Z,4.70
2018-09-20T21:22:29.836Z,6.07
2018-09-20T21:24:58.419Z,5.43
2018-09-20T21:27:27.021Z,6.17
2018-09-20T21:29:55.615Z,5.80
2018-09-20T21:32:24.219Z,5.90
2018-09-20T21:34:52.816Z,5.67
2018-09-20T21:37:21.423Z,5.10
2018-09-20T21:39:50.035Z,4.40
2018-09-20T21:42:18.646Z,4.67
2018-09-20T21:44:47.239Z,5.93
2018-09-20T21:47:16.099Z,5.10
2018-09-20T21:49:44.696Z,4.93
2018-09-20T21:52:13.303Z,4.77
2018-09-20T21:54:41.904Z,4.47
2018-09-20T21:57:10.562Z,4.67
2018-09-20T21:59:39.135Z,3.83
2018-09-20T22:02:07.741Z,3.87
2018-09-20T22:04:37.006Z,4.07
2018-09-20T22:07:05.608Z,3.60
2018-09-20T22:09:34.224Z,3.50
2018-09-20T22:12:02.844Z,3.20
2018-09-20T22:14:31.495Z,4.20
2018-09-20T22:17:00.105Z,4.03
2018-09-20T22:19:28.707Z,3.67
2018-09-20T22:21:57.313Z,3.60
2018-09-20T22:24:25.920Z,4.50
2018-09-20T22:26:54.507Z,4.00
2018-09-20T22:29:23.112Z,3.50
2018-09-20T22:31:51.712Z,3.40
2018-09-20T22:34:20.334Z,3.70
2018-09-20T22:36:48.987Z,4.03
2018-09-20T22:39:17.600Z,4.10
2018-09-20T22:41:46.191Z,3.80
2018-09-20T22:44:14.809Z,4.27
2018-09-20T22:47:46.163Z,4.20
2018-09-20T22:50:14.811Z,4.07
2018-09-20T22:52:43.445Z,4.47
2018-09-20T22:55:12.045Z,3.70
2018-09-20T22:57:40.652Z,4.03
2018-09-20T23:00:09.260Z,3.77
2018-09-20T23:02:37.860Z,4.17
2018-09-20T23:05:06.467Z,3.90
2018-09-20T23:07:35.071Z,3.50
2018-09-20T23:10:03.699Z,3.77
2018-09-20T23:12:32.301Z,3.67
2018-09-20T23:15:00.920Z,4.20
2018-09-20T23:17:29.525Z,4.40
2018-09-20T23:19:58.131Z,3.63
2018-09-20T23:22:26.746Z,3.73
2018-09-20T23:24:55.347Z,4.70
2018-09-20T23:27:23.952Z,4.37
2018-09-20T23:29:52.568Z,4.43
2018-09-20T23:32:21.167Z,5.00
2018-09-20T23:34:49.780Z,4.80
2018-09-20T23:37:18.384Z,4.33
2018-09-20T23:39:46.984Z,4.30
2018-09-20T23:42:15.585Z,5.30
2018-09-20T23:44:44.195Z,4.70
2018-09-20T23:47:12.804Z,4.23
2018-09-20T23:49:41.425Z,4.40
2018-09-20T23:52:10.031Z,4.87
2018-09-20T23:54:38.643Z,4.50
2018-09-20T23:57:07.248Z,5.00
2018-09-20T23:59:35.909Z,3.97
